createdAt,value
2022-10-16T00:00:36.393Z,15.55
2022-10-16T00:15:23.564Z,15.50
2022-10-16T00:30:23.828Z,15.33
2022-10-16T00:45:23.752Z,15.07
2022-10-16T01:00:38.893Z,14.93
2022-10-16T01:15:24.093Z,14.85
2022-10-16T01:30:23.930Z,14.93
2022-10-16T01:45:23.515Z,14.62
2022-10-16T02:00:30.084Z,14.60
2022-10-16T02:15:24.450Z,14.57
2022-10-16T02:30:23.969Z,14.70
2022-10-16T02:45:23.999Z,14.62
2022-10-16T03:00:24.484Z,14.62
2022-10-16T03:15:33.923Z,14.65
2022-10-16T03:30:33.087Z,14.55
2022-10-16T03:45:33.386Z,14.53
2022-10-16T04:00:35.587Z,14.40
2022-10-16T04:15:23.746Z,14.35
2022-10-16T04:30:23.303Z,14.35
2022-10-16T04:45:23.628Z,14.18
2022-10-16T05:00:26.556Z,14.12
2022-10-16T05:15:23.550Z,14.05
2022-10-16T05:30:23.589Z,13.98
2022-10-16T05:45:23.708Z,13.90
2022-10-16T06:00:35.029Z,13.80
2022-10-16T06:15:24.239Z,14.07
2022-10-16T06:30:24.263Z,14.02
2022-10-16T06:45:23.958Z,14.15
2022-10-16T07:00:26.961Z,14.32
2022-10-16T07:15:24.003Z,14.38
2022-10-16T07:30:25.210Z,14.68
2022-10-16T07:45:24.008Z,14.90
2022-10-16T08:00:25.830Z,15.07
2022-10-16T08:15:23.262Z,15.40
2022-10-16T08:30:27.383Z,15.57
2022-10-16T08:45:23.581Z,16.10
2022-10-16T09:00:25.281Z,16.38
2022-10-16T09:15:23.330Z,16.80
2022-10-16T09:30:25.724Z,17.12
2022-10-16T09:45:24.086Z,17.53
2022-10-16T10:00:32.263Z,17.73
2022-10-16T10:15:23.777Z,17.90
2022-10-16T10:30:23.667Z,17.88
2022-10-16T10:45:23.870Z,18.67
2022-10-16T11:00:26.599Z,19.15
2022-10-16T11:15:23.691Z,19.78
2022-10-16T11:30:25.138Z,20.47
2022-10-16T11:45:24.352Z,20.57
2022-10-16T12:00:32.502Z,20.98
2022-10-16T12:15:35.222Z,21.30
2022-10-16T12:30:24.488Z,21.60
2022-10-16T12:45:24.351Z,21.83
2022-10-16T13:00:37.552Z,21.88
2022-10-16T13:15:33.432Z,22.03
2022-10-16T13:30:33.967Z,22.28
2022-10-16T13:45:33.438Z,22.20
2022-10-16T14:00:33.640Z,22.27
2022-10-16T14:15:23.997Z,22.22
2022-10-16T14:30:26.967Z,21.88
2022-10-16T14:45:23.712Z,21.62
2022-10-16T15:00:24.054Z,21.55
2022-10-16T15:15:23.403Z,21.63
2022-10-16T15:30:25.233Z,21.30
2022-10-16T15:45:24.030Z,20.97
2022-10-16T16:00:29.214Z,20.62
2022-10-16T16:15:24.011Z,20.30
2022-10-16T16:30:29.769Z,19.83
2022-10-16T16:45:23.821Z,19.35
2022-10-16T17:00:33.446Z,19.25
2022-10-16T17:15:23.796Z,18.60
2022-10-16T17:30:23.794Z,18.17
2022-10-16T17:45:23.769Z,17.85
2022-10-16T18:00:30.866Z,17.57
2022-10-16T18:15:24.332Z,17.40
2022-10-16T18:30:24.013Z,17.08
2022-10-16T18:45:23.949Z,17.03
2022-10-16T19:00:35.841Z,16.62
2022-10-16T19:15:23.087Z,16.60
2022-10-16T19:30:23.076Z,16.30
2022-10-16T19:45:23.078Z,15.98
2022-10-16T20:00:38.931Z,15.90
2022-10-16T20:15:23.366Z,15.95
2022-10-16T20:30:25.486Z,15.63
2022-10-16T20:45:23.259Z,15.52
2022-10-16T21:00:30.583Z,15.50
2022-10-16T21:15:23.708Z,15.20
2022-10-16T21:30:23.378Z,15.05
2022-10-16T21:45:23.552Z,14.90
2022-10-16T22:00:44.924Z,15.00
2022-10-16T22:15:24.697Z,15.00
2022-10-16T22:30:23.885Z,15.00
2022-10-16T22:45:24.109Z,14.50
2022-10-16T23:00:24.702Z,14.12
2022-10-16T23:15:24.116Z,14.10
2022-10-16T23:30:24.106Z,13.68
2022-10-16T23:45:23.988Z,13.50
